Terminal Aerodrome Forecast
Issued by NWS Paducah, KY

Home | Current Version | Previous Version | Text Only | Print | Product List | Glossary On
Versions: 1 2 3 4 5 6 7 8 9 10 11 12 13 14 15 16 17 18
558
FTUS43 KPAH 270740 AAC
TAFPAH
TAF AMD
KPAH 270740Z 2708/2806 00000KT 1SM BR BCFG SCT002
     FM271400 26004KT P6SM SKC
     FM280000 00000KT P6SM SKC=

USA.gov is the U.S. government's official web portal to all federal, state and local government web resources and services.